sensor_id;sensor_type;location;lat;lon;timestamp;P1;durP1;ratioP1;P2;durP2;ratioP2
52798;SDS011;38667;42.872;74.622;2024-02-14T00:02:09;318.73;;;101.40;;
52798;SDS011;38667;42.872;74.622;2024-02-14T00:04:36;244.40;;;79.77;;
52798;SDS011;38667;42.872;74.622;2024-02-14T00:07:02;201.73;;;73.57;;
52798;SDS011;38667;42.872;74.622;2024-02-14T00:09:30;196.50;;;70.93;;
52798;SDS011;38667;42.872;74.622;2024-02-14T00:11:56;208.70;;;69.57;;
52798;SDS011;38667;42.872;74.622;2024-02-14T00:14:23;197.13;;;63.67;;
52798;SDS011;38667;42.872;74.622;2024-02-14T00:16:49;188.40;;;63.57;;
52798;SDS011;38667;42.872;74.622;2024-02-14T00:19:16;159.05;;;52.60;;
52798;SDS011;38667;42.872;74.622;2024-02-14T00:21:42;80.23;;;36.50;;
52798;SDS011;38667;42.872;74.622;2024-02-14T00:24:08;97.93;;;39.83;;
52798;SDS011;38667;42.872;74.622;2024-02-14T00:26:36;93.15;;;38.47;;
52798;SDS011;38667;42.872;74.622;2024-02-14T00:29:03;101.60;;;41.20;;
52798;SDS011;38667;42.872;74.622;2024-02-14T00:31:29;99.33;;;39.30;;
52798;SDS011;38667;42.872;74.622;2024-02-14T00:33:55;104.23;;;40.43;;
52798;SDS011;38667;42.872;74.622;2024-02-14T00:36:22;109.70;;;44.63;;
52798;SDS011;38667;42.872;74.622;2024-02-14T00:38:48;173.47;;;65.57;;
52798;SDS011;38667;42.872;74.622;2024-02-14T00:41:15;193.03;;;81.70;;
52798;SDS011;38667;42.872;74.622;2024-02-14T00:43:42;70.22;;;33.50;;
52798;SDS011;38667;42.872;74.622;2024-02-14T00:46:09;76.63;;;32.20;;
52798;SDS011;38667;42.872;74.622;2024-02-14T00:48:40;67.78;;;32.55;;
52798;SDS011;38667;42.872;74.622;2024-02-14T00:51:07;45.80;;;21.70;;
52798;SDS011;38667;42.872;74.622;2024-02-14T00:53:33;92.33;;;37.23;;
52798;SDS011;38667;42.872;74.622;2024-02-14T00:55:59;90.03;;;37.88;;
52798;SDS011;38667;42.872;74.622;2024-02-14T00:58:26;108.87;;;41.27;;
52798;SDS011;38667;42.872;74.622;2024-02-14T01:00:54;113.27;;;38.80;;
52798;SDS011;38667;42.872;74.622;2024-02-14T01:03:20;90.70;;;36.47;;
52798;SDS011;38667;42.872;74.622;2024-02-14T01:05:47;85.73;;;34.87;;
52798;SDS011;38667;42.872;74.622;2024-02-14T01:08:13;81.07;;;36.17;;
52798;SDS011;38667;42.872;74.622;2024-02-14T01:10:40;88.78;;;35.83;;
52798;SDS011;38667;42.872;74.622;2024-02-14T01:13:06;106.17;;;34.17;;
52798;SDS011;38667;42.872;74.622;2024-02-14T01:15:32;105.37;;;33.30;;
52798;SDS011;38667;42.872;74.622;2024-02-14T01:18:00;121.47;;;36.07;;
52798;SDS011;38667;42.872;74.622;2024-02-14T01:20:27;164.52;;;43.22;;
52798;SDS011;38667;42.872;74.622;2024-02-14T01:22:53;160.05;;;46.90;;
52798;SDS011;38667;42.872;74.622;2024-02-14T01:25:19;468.23;;;133.10;;
52798;SDS011;38667;42.872;74.622;2024-02-14T01:27:46;283.42;;;82.68;;
52798;SDS011;38667;42.872;74.622;2024-02-14T01:30:13;254.73;;;74.40;;
52798;SDS011;38667;42.872;74.622;2024-02-14T01:32:39;287.17;;;88.22;;
52798;SDS011;38667;42.872;74.622;2024-02-14T01:35:08;260.13;;;81.32;;
52798;SDS011;38667;42.872;74.622;2024-02-14T01:37:34;185.00;;;59.93;;
52798;SDS011;38667;42.872;74.622;2024-02-14T01:40:00;162.15;;;53.90;;
52798;SDS011;38667;42.872;74.622;2024-02-14T01:42:27;235.80;;;67.60;;
52798;SDS011;38667;42.872;74.622;2024-02-14T01:44:53;165.93;;;48.13;;
52798;SDS011;38667;42.872;74.622;2024-02-14T01:47:20;74.63;;;25.37;;
52798;SDS011;38667;42.872;74.622;2024-02-14T01:49:46;77.03;;;26.27;;
52798;SDS011;38667;42.872;74.622;2024-02-14T01:52:15;68.87;;;23.43;;
52798;SDS011;38667;42.872;74.622;2024-02-14T01:54:41;46.50;;;18.93;;
52798;SDS011;38667;42.872;74.622;2024-02-14T01:57:08;25.00;;;11.95;;
52798;SDS011;38667;42.872;74.622;2024-02-14T01:59:35;20.27;;;9.70;;
52798;SDS011;38667;42.872;74.622;2024-02-14T02:02:01;25.35;;;10.95;;
52798;SDS011;38667;42.872;74.622;2024-02-14T02:04:28;47.28;;;14.82;;
52798;SDS011;38667;42.872;74.622;2024-02-14T02:06:54;50.72;;;18.25;;
52798;SDS011;38667;42.872;74.622;2024-02-14T02:09:22;50.92;;;17.77;;
52798;SDS011;38667;42.872;74.622;2024-02-14T02:11:49;43.63;;;14.43;;
52798;SDS011;38667;42.872;74.622;2024-02-14T02:14:16;38.42;;;13.57;;
52798;SDS011;38667;42.872;74.622;2024-02-14T02:16:43;51.80;;;17.17;;
52798;SDS011;38667;42.872;74.622;2024-02-14T02:19:09;54.87;;;17.40;;
52798;SDS011;38667;42.872;74.622;2024-02-14T02:21:36;66.83;;;18.13;;
52798;SDS011;38667;42.872;74.622;2024-02-14T02:24:04;58.45;;;17.63;;
52798;SDS011;38667;42.872;74.622;2024-02-14T02:26:31;51.33;;;15.90;;
52798;SDS011;38667;42.872;74.622;2024-02-14T02:28:57;44.70;;;13.80;;
52798;SDS011;38667;42.872;74.622;2024-02-14T02:31:24;44.07;;;16.17;;
52798;SDS011;38667;42.872;74.622;2024-02-14T02:33:50;36.08;;;13.70;;
52798;SDS011;38667;42.872;74.622;2024-02-14T02:36:16;40.57;;;14.73;;
52798;SDS011;38667;42.872;74.622;2024-02-14T02:38:43;58.57;;;20.17;;
52798;SDS011;38667;42.872;74.622;2024-02-14T02:41:11;49.67;;;18.25;;
52798;SDS011;38667;42.872;74.622;2024-02-14T02:43:37;59.08;;;19.17;;
52798;SDS011;38667;42.872;74.622;2024-02-14T02:46:03;47.00;;;19.88;;
52798;SDS011;38667;42.872;74.622;2024-02-14T02:48:30;42.72;;;17.45;;
52798;SDS011;38667;42.872;74.622;2024-02-14T02:50:56;73.43;;;24.70;;
52798;SDS011;38667;42.872;74.622;2024-02-14T02:53:23;55.97;;;19.00;;
52798;SDS011;38667;42.872;74.622;2024-02-14T02:55:49;59.10;;;18.33;;
52798;SDS011;38667;42.872;74.622;2024-02-14T02:58:17;45.15;;;13.48;;
52798;SDS011;38667;42.872;74.622;2024-02-14T03:00:43;48.65;;;16.88;;
52798;SDS011;38667;42.872;74.622;2024-02-14T03:03:10;66.40;;;24.65;;
52798;SDS011;38667;42.872;74.622;2024-02-14T03:05:36;96.93;;;29.90;;
52798;SDS011;38667;42.872;74.622;2024-02-14T03:08:02;109.63;;;31.35;;
52798;SDS011;38667;42.872;74.622;2024-02-14T03:10:29;139.63;;;40.20;;
52798;SDS011;38667;42.872;74.622;2024-02-14T03:12:55;124.13;;;37.08;;
52798;SDS011;38667;42.872;74.622;2024-02-14T03:15:23;88.25;;;26.95;;
52798;SDS011;38667;42.872;74.622;2024-02-14T03:17:50;92.68;;;26.80;;
52798;SDS011;38667;42.872;74.622;2024-02-14T03:20:16;96.25;;;24.52;;
52798;SDS011;38667;42.872;74.622;2024-02-14T03:22:43;155.45;;;46.72;;
52798;SDS011;38667;42.872;74.622;2024-02-14T03:25:11;163.75;;;47.90;;
52798;SDS011;38667;42.872;74.622;2024-02-14T03:27:38;160.13;;;50.78;;
52798;SDS011;38667;42.872;74.622;2024-02-14T03:30:05;152.45;;;48.78;;
52798;SDS011;38667;42.872;74.622;2024-02-14T03:32:34;128.55;;;46.20;;
52798;SDS011;38667;42.872;74.622;2024-02-14T03:35:01;112.00;;;39.90;;
52798;SDS011;38667;42.872;74.622;2024-02-14T03:37:27;101.38;;;37.47;;
52798;SDS011;38667;42.872;74.622;2024-02-14T03:39:53;109.70;;;40.75;;
52798;SDS011;38667;42.872;74.622;2024-02-14T03:42:20;111.32;;;36.08;;
52798;SDS011;38667;42.872;74.622;2024-02-14T03:44:46;99.30;;;35.25;;
52798;SDS011;38667;42.872;74.622;2024-02-14T03:47:12;83.85;;;35.15;;
52798;SDS011;38667;42.872;74.622;2024-02-14T03:49:40;99.03;;;32.10;;
52798;SDS011;38667;42.872;74.622;2024-02-14T03:52:07;83.18;;;30.33;;
52798;SDS011;38667;42.872;74.622;2024-02-14T03:54:33;78.22;;;32.00;;
52798;SDS011;38667;42.872;74.622;2024-02-14T03:56:59;78.65;;;29.05;;
52798;SDS011;38667;42.872;74.622;2024-02-14T03:59:26;69.13;;;28.00;;
52798;SDS011;38667;42.872;74.622;2024-02-14T04:01:52;56.95;;;23.33;;
52798;SDS011;38667;42.872;74.622;2024-02-14T04:04:18;72.00;;;27.45;;
52798;SDS011;38667;42.872;74.622;2024-02-14T04:06:46;85.80;;;27.10;;
52798;SDS011;38667;42.872;74.622;2024-02-14T04:09:13;62.90;;;22.63;;
52798;SDS011;38667;42.872;74.622;2024-02-14T04:11:39;46.70;;;18.92;;
52798;SDS011;38667;42.872;74.622;2024-02-14T04:14:05;32.08;;;12.32;;
52798;SDS011;38667;42.872;74.622;2024-02-14T04:16:32;33.17;;;13.05;;
52798;SDS011;38667;42.872;74.622;2024-02-14T04:18:58;41.10;;;14.32;;
52798;SDS011;38667;42.872;74.622;2024-02-14T04:21:24;44.95;;;14.70;;
52798;SDS011;38667;42.872;74.622;2024-02-14T04:23:52;33.53;;;14.45;;
52798;SDS011;38667;42.872;74.622;2024-02-14T04:26:19;30.92;;;12.68;;
52798;SDS011;38667;42.872;74.622;2024-02-14T04:28:45;39.75;;;13.25;;
52798;SDS011;38667;42.872;74.622;2024-02-14T04:31:12;47.00;;;14.23;;
52798;SDS011;38667;42.872;74.622;2024-02-14T04:33:38;37.10;;;15.30;;
52798;SDS011;38667;42.872;74.622;2024-02-14T04:36:05;45.22;;;16.15;;
52798;SDS011;38667;42.872;74.622;2024-02-14T04:38:32;41.10;;;15.07;;
52798;SDS011;38667;42.872;74.622;2024-02-14T04:41:00;35.17;;;14.52;;
52798;SDS011;38667;42.872;74.622;2024-02-14T04:43:26;44.25;;;15.85;;
52798;SDS011;38667;42.872;74.622;2024-02-14T04:45:52;42.22;;;14.80;;
52798;SDS011;38667;42.872;74.622;2024-02-14T04:50:45;25.20;;;13.85;;
52798;SDS011;38667;42.872;74.622;2024-02-14T04:53:12;27.50;;;11.77;;
52798;SDS011;38667;42.872;74.622;2024-02-14T04:55:38;31.60;;;11.50;;
52798;SDS011;38667;42.872;74.622;2024-02-14T04:58:06;47.55;;;16.15;;
52798;SDS011;38667;42.872;74.622;2024-02-14T05:00:32;35.70;;;13.75;;
52798;SDS011;38667;42.872;74.622;2024-02-14T05:02:59;35.13;;;13.43;;
52798;SDS011;38667;42.872;74.622;2024-02-14T05:05:25;37.17;;;13.48;;
52798;SDS011;38667;42.872;74.622;2024-02-14T05:07:51;37.53;;;14.88;;
52798;SDS011;38667;42.872;74.622;2024-02-14T05:10:18;50.53;;;18.70;;
52798;SDS011;38667;42.872;74.622;2024-02-14T05:12:44;46.47;;;17.40;;
52798;SDS011;38667;42.872;74.622;2024-02-14T05:15:12;64.82;;;17.08;;
52798;SDS011;38667;42.872;74.622;2024-02-14T05:17:41;40.15;;;15.57;;
52798;SDS011;38667;42.872;74.622;2024-02-14T05:20:08;44.10;;;13.48;;
52798;SDS011;38667;42.872;74.622;2024-02-14T05:22:35;26.95;;;11.75;;
52798;SDS011;38667;42.872;74.622;2024-02-14T05:25:02;28.10;;;11.73;;
52798;SDS011;38667;42.872;74.622;2024-02-14T05:27:29;23.42;;;8.95;;
52798;SDS011;38667;42.872;74.622;2024-02-14T05:29:55;29.65;;;11.70;;
52798;SDS011;38667;42.872;74.622;2024-02-14T05:32:23;25.45;;;10.23;;
52798;SDS011;38667;42.872;74.622;2024-02-14T05:34:50;32.20;;;13.52;;
52798;SDS011;38667;42.872;74.622;2024-02-14T05:37:16;63.58;;;17.48;;
52798;SDS011;38667;42.872;74.622;2024-02-14T05:39:43;37.30;;;15.90;;
52798;SDS011;38667;42.872;74.622;2024-02-14T05:42:09;30.40;;;12.88;;
52798;SDS011;38667;42.872;74.622;2024-02-14T05:44:35;32.63;;;11.52;;
52798;SDS011;38667;42.872;74.622;2024-02-14T05:47:02;22.65;;;7.72;;
52798;SDS011;38667;42.872;74.622;2024-02-14T05:49:30;15.07;;;7.32;;
52798;SDS011;38667;42.872;74.622;2024-02-14T05:51:56;27.17;;;8.65;;
52798;SDS011;38667;42.872;74.622;2024-02-14T05:54:22;29.48;;;10.25;;
52798;SDS011;38667;42.872;74.622;2024-02-14T05:56:49;30.10;;;10.93;;
52798;SDS011;38667;42.872;74.622;2024-02-14T05:59:15;21.80;;;9.73;;
52798;SDS011;38667;42.872;74.622;2024-02-14T06:01:41;21.00;;;8.52;;
52798;SDS011;38667;42.872;74.622;2024-02-14T06:04:08;31.35;;;8.48;;
52798;SDS011;38667;42.872;74.622;2024-02-14T06:06:36;17.45;;;7.35;;
52798;SDS011;38667;42.872;74.622;2024-02-14T06:09:02;29.33;;;7.88;;
52798;SDS011;38667;42.872;74.622;2024-02-14T06:20:38;17.48;;;7.22;;
52798;SDS011;38667;42.872;74.622;2024-02-14T06:23:06;19.58;;;7.13;;
52798;SDS011;38667;42.872;74.622;2024-02-14T06:25:33;23.35;;;8.02;;
52798;SDS011;38667;42.872;74.622;2024-02-14T06:27:59;19.83;;;8.13;;
52798;SDS011;38667;42.872;74.622;2024-02-14T06:30:26;17.70;;;6.93;;
52798;SDS011;38667;42.872;74.622;2024-02-14T06:32:52;19.30;;;7.43;;
52798;SDS011;38667;42.872;74.622;2024-02-14T06:35:18;18.10;;;7.32;;
52798;SDS011;38667;42.872;74.622;2024-02-14T06:37:45;42.22;;;8.30;;
52798;SDS011;38667;42.872;74.622;2024-02-14T06:40:13;28.88;;;8.10;;
52798;SDS011;38667;42.872;74.622;2024-02-14T06:42:40;20.15;;;7.28;;
52798;SDS011;38667;42.872;74.622;2024-02-14T06:45:06;24.40;;;7.10;;
52798;SDS011;38667;42.872;74.622;2024-02-14T06:47:33;33.13;;;6.85;;
52798;SDS011;38667;42.872;74.622;2024-02-14T06:50:00;11.63;;;5.28;;
52798;SDS011;38667;42.872;74.622;2024-02-14T06:52:26;20.60;;;7.53;;
52798;SDS011;38667;42.872;74.622;2024-02-14T06:54:52;32.13;;;6.57;;
52798;SDS011;38667;42.872;74.622;2024-02-14T06:57:20;19.30;;;5.75;;
52798;SDS011;38667;42.872;74.622;2024-02-14T06:59:46;36.50;;;7.03;;
52798;SDS011;38667;42.872;74.622;2024-02-14T07:02:13;21.63;;;5.93;;
52798;SDS011;38667;42.872;74.622;2024-02-14T07:04:39;10.02;;;5.35;;
52798;SDS011;38667;42.872;74.622;2024-02-14T07:07:06;12.32;;;4.88;;
52798;SDS011;38667;42.872;74.622;2024-02-14T07:09:32;31.55;;;6.45;;
52798;SDS011;38667;42.872;74.622;2024-02-14T07:11:58;9.50;;;6.13;;
52798;SDS011;38667;42.872;74.622;2024-02-14T07:14:26;16.13;;;5.68;;
52798;SDS011;38667;42.872;74.622;2024-02-14T07:16:52;35.33;;;10.25;;
52798;SDS011;38667;42.872;74.622;2024-02-14T07:19:19;31.77;;;8.75;;
52798;SDS011;38667;42.872;74.622;2024-02-14T07:21:45;23.35;;;8.15;;
52798;SDS011;38667;42.872;74.622;2024-02-14T07:24:11;25.08;;;8.48;;
52798;SDS011;38667;42.872;74.622;2024-02-14T07:26:38;23.95;;;7.95;;
52798;SDS011;38667;42.872;74.622;2024-02-14T07:29:04;21.08;;;7.43;;
52798;SDS011;38667;42.872;74.622;2024-02-14T07:31:32;23.30;;;6.60;;
52798;SDS011;38667;42.872;74.622;2024-02-14T07:33:58;33.13;;;7.53;;
52798;SDS011;38667;42.872;74.622;2024-02-14T07:36:25;42.35;;;7.93;;
52798;SDS011;38667;42.872;74.622;2024-02-14T07:38:51;40.88;;;7.30;;
52798;SDS011;38667;42.872;74.622;2024-02-14T07:41:18;49.38;;;11.73;;
52798;SDS011;38667;42.872;74.622;2024-02-14T07:43:44;58.45;;;11.25;;
52798;SDS011;38667;42.872;74.622;2024-02-14T07:46:10;42.85;;;9.25;;
52798;SDS011;38667;42.872;74.622;2024-02-14T07:48:42;61.70;;;9.73;;
52798;SDS011;38667;42.872;74.622;2024-02-14T07:51:09;16.33;;;5.07;;
52798;SDS011;38667;42.872;74.622;2024-02-14T07:53:35;23.73;;;5.95;;
52798;SDS011;38667;42.872;74.622;2024-02-14T07:56:02;8.90;;;4.43;;
52798;SDS011;38667;42.872;74.622;2024-02-14T07:58:28;22.92;;;6.78;;
52798;SDS011;38667;42.872;74.622;2024-02-14T08:00:54;38.20;;;8.48;;
52798;SDS011;38667;42.872;74.622;2024-02-14T08:03:21;23.48;;;6.40;;
52798;SDS011;38667;42.872;74.622;2024-02-14T08:05:49;27.15;;;7.53;;
52798;SDS011;38667;42.872;74.622;2024-02-14T08:08:15;45.22;;;9.50;;
52798;SDS011;38667;42.872;74.622;2024-02-14T08:10:41;43.13;;;10.02;;
52798;SDS011;38667;42.872;74.622;2024-02-14T08:13:08;24.80;;;7.15;;
52798;SDS011;38667;42.872;74.622;2024-02-14T08:15:34;9.48;;;3.95;;
52798;SDS011;38667;42.872;74.622;2024-02-14T08:18:00;14.30;;;5.47;;
52798;SDS011;38667;42.872;74.622;2024-02-14T08:20:27;36.28;;;8.18;;
52798;SDS011;38667;42.872;74.622;2024-02-14T08:22:55;38.45;;;8.88;;
52798;SDS011;38667;42.872;74.622;2024-02-14T08:25:21;26.23;;;6.47;;
52798;SDS011;38667;42.872;74.622;2024-02-14T08:27:48;12.10;;;4.57;;
52798;SDS011;38667;42.872;74.622;2024-02-14T08:30:14;14.32;;;4.68;;
52798;SDS011;38667;42.872;74.622;2024-02-14T08:32:41;9.73;;;4.40;;
52798;SDS011;38667;42.872;74.622;2024-02-14T08:35:07;14.77;;;4.70;;
52798;SDS011;38667;42.872;74.622;2024-02-14T08:37:34;16.67;;;5.22;;
52798;SDS011;38667;42.872;74.622;2024-02-14T08:40:02;11.93;;;4.50;;
52798;SDS011;38667;42.872;74.622;2024-02-14T08:42:28;13.75;;;4.75;;
52798;SDS011;38667;42.872;74.622;2024-02-14T08:44:55;15.10;;;3.90;;
52798;SDS011;38667;42.872;74.622;2024-02-14T08:47:21;7.07;;;3.60;;
52798;SDS011;38667;42.872;74.622;2024-02-14T08:49:47;19.75;;;4.28;;
52798;SDS011;38667;42.872;74.622;2024-02-14T08:52:14;14.07;;;5.53;;
52798;SDS011;38667;42.872;74.622;2024-02-14T08:54:40;6.55;;;3.65;;
52798;SDS011;38667;42.872;74.622;2024-02-14T08:57:08;9.60;;;3.05;;
52798;SDS011;38667;42.872;74.622;2024-02-14T08:59:34;8.30;;;3.70;;
52798;SDS011;38667;42.872;74.622;2024-02-14T09:02:01;11.48;;;4.50;;
52798;SDS011;38667;42.872;74.622;2024-02-14T09:04:27;9.70;;;3.65;;
52798;SDS011;38667;42.872;74.622;2024-02-14T09:06:53;11.15;;;4.13;;
52798;SDS011;38667;42.872;74.622;2024-02-14T09:09:21;14.13;;;4.50;;
52798;SDS011;38667;42.872;74.622;2024-02-14T09:11:47;20.80;;;9.05;;
52798;SDS011;38667;42.872;74.622;2024-02-14T09:14:15;20.38;;;4.95;;
52798;SDS011;38667;42.872;74.622;2024-02-14T09:16:42;16.40;;;6.75;;
52798;SDS011;38667;42.872;74.622;2024-02-14T09:19:08;13.70;;;3.97;;
52798;SDS011;38667;42.872;74.622;2024-02-14T09:21:34;11.82;;;3.35;;
52798;SDS011;38667;42.872;74.622;2024-02-14T09:24:01;26.02;;;8.35;;
52798;SDS011;38667;42.872;74.622;2024-02-14T09:26:27;17.27;;;5.90;;
52798;SDS011;38667;42.872;74.622;2024-02-14T09:28:54;14.60;;;5.70;;
52798;SDS011;38667;42.872;74.622;2024-02-14T09:31:22;8.88;;;2.95;;
52798;SDS011;38667;42.872;74.622;2024-02-14T09:33:48;18.05;;;6.47;;
52798;SDS011;38667;42.872;74.622;2024-02-14T09:36:15;28.55;;;8.85;;
52798;SDS011;38667;42.872;74.622;2024-02-14T09:38:41;13.52;;;5.65;;
52798;SDS011;38667;42.872;74.622;2024-02-14T09:41:11;21.52;;;7.43;;
52798;SDS011;38667;42.872;74.622;2024-02-14T09:43:40;18.88;;;7.90;;
52798;SDS011;38667;42.872;74.622;2024-02-14T09:46:10;20.05;;;9.77;;
52798;SDS011;38667;42.872;74.622;2024-02-14T09:48:40;13.43;;;5.90;;
52798;SDS011;38667;42.872;74.622;2024-02-14T09:51:08;22.60;;;5.82;;
52798;SDS011;38667;42.872;74.622;2024-02-14T09:53:36;11.23;;;5.05;;
52798;SDS011;38667;42.872;74.622;2024-02-14T09:56:03;17.90;;;5.18;;
52798;SDS011;38667;42.872;74.622;2024-02-14T09:58:31;9.82;;;4.45;;
52798;SDS011;38667;42.872;74.622;2024-02-14T10:00:57;10.50;;;4.47;;
52798;SDS011;38667;42.872;74.622;2024-02-14T10:03:23;16.88;;;5.63;;
52798;SDS011;38667;42.872;74.622;2024-02-14T10:05:51;16.02;;;6.55;;
52798;SDS011;38667;42.872;74.622;2024-02-14T10:08:18;16.67;;;5.18;;
52798;SDS011;38667;42.872;74.622;2024-02-14T10:10:44;8.55;;;4.13;;
52798;SDS011;38667;42.872;74.622;2024-02-14T10:13:10;19.52;;;7.55;;
52798;SDS011;38667;42.872;74.622;2024-02-14T10:15:37;12.63;;;4.93;;
52798;SDS011;38667;42.872;74.622;2024-02-14T10:18:04;12.73;;;4.20;;
52798;SDS011;38667;42.872;74.622;2024-02-14T10:20:30;10.25;;;4.20;;
52798;SDS011;38667;42.872;74.622;2024-02-14T10:23:01;16.25;;;6.82;;
52798;SDS011;38667;42.872;74.622;2024-02-14T10:25:28;13.05;;;4.75;;
52798;SDS011;38667;42.872;74.622;2024-02-14T10:27:55;14.13;;;4.97;;
52798;SDS011;38667;42.872;74.622;2024-02-14T10:30:21;11.27;;;4.32;;
52798;SDS011;38667;42.872;74.622;2024-02-14T10:32:48;13.02;;;3.95;;
52798;SDS011;38667;42.872;74.622;2024-02-14T10:35:14;13.15;;;4.35;;
52798;SDS011;38667;42.872;74.622;2024-02-14T10:37:41;7.22;;;3.60;;
52798;SDS011;38667;42.872;74.622;2024-02-14T10:40:11;20.58;;;5.18;;
52798;SDS011;38667;42.872;74.622;2024-02-14T10:42:37;10.18;;;6.05;;
52798;SDS011;38667;42.872;74.622;2024-02-14T10:45:04;21.48;;;7.97;;
52798;SDS011;38667;42.872;74.622;2024-02-14T10:47:31;18.52;;;6.10;;
52798;SDS011;38667;42.872;74.622;2024-02-14T10:50:00;13.88;;;5.72;;
52798;SDS011;38667;42.872;74.622;2024-02-14T10:52:29;14.30;;;8.43;;
52798;SDS011;38667;42.872;74.622;2024-02-14T10:54:57;25.02;;;13.30;;
52798;SDS011;38667;42.872;74.622;2024-02-14T10:57:28;23.38;;;6.07;;
52798;SDS011;38667;42.872;74.622;2024-02-14T10:59:55;21.90;;;9.60;;
52798;SDS011;38667;42.872;74.622;2024-02-14T11:02:23;26.10;;;9.48;;
52798;SDS011;38667;42.872;74.622;2024-02-14T11:04:50;23.70;;;10.57;;
52798;SDS011;38667;42.872;74.622;2024-02-14T11:07:16;27.30;;;11.60;;
52798;SDS011;38667;42.872;74.622;2024-02-14T11:09:43;16.83;;;9.20;;
52798;SDS011;38667;42.872;74.622;2024-02-14T11:12:10;21.15;;;9.40;;
52798;SDS011;38667;42.872;74.622;2024-02-14T11:14:38;21.88;;;12.85;;
52798;SDS011;38667;42.872;74.622;2024-02-14T11:17:09;27.75;;;13.43;;
52798;SDS011;38667;42.872;74.622;2024-02-14T11:19:35;42.95;;;17.10;;
52798;SDS011;38667;42.872;74.622;2024-02-14T11:22:09;40.33;;;21.63;;
52798;SDS011;38667;42.872;74.622;2024-02-14T11:24:36;23.85;;;11.02;;
52798;SDS011;38667;42.872;74.622;2024-02-14T11:27:03;13.80;;;6.80;;
52798;SDS011;38667;42.872;74.622;2024-02-14T11:29:34;16.88;;;9.52;;
52798;SDS011;38667;42.872;74.622;2024-02-14T11:32:02;23.48;;;14.13;;
52798;SDS011;38667;42.872;74.622;2024-02-14T11:34:31;25.45;;;11.90;;
52798;SDS011;38667;42.872;74.622;2024-02-14T11:36:57;37.65;;;16.10;;
52798;SDS011;38667;42.872;74.622;2024-02-14T11:39:23;28.98;;;10.57;;
52798;SDS011;38667;42.872;74.622;2024-02-14T11:41:50;24.98;;;8.98;;
52798;SDS011;38667;42.872;74.622;2024-02-14T11:44:18;40.08;;;16.00;;
52798;SDS011;38667;42.872;74.622;2024-02-14T11:46:44;27.17;;;12.60;;
52798;SDS011;38667;42.872;74.622;2024-02-14T11:49:12;62.83;;;19.65;;
52798;SDS011;38667;42.872;74.622;2024-02-14T11:51:39;53.47;;;18.88;;
52798;SDS011;38667;42.872;74.622;2024-02-14T11:54:05;42.33;;;21.52;;
52798;SDS011;38667;42.872;74.622;2024-02-14T11:56:33;63.55;;;26.58;;
52798;SDS011;38667;42.872;74.622;2024-02-14T11:59:01;60.58;;;24.45;;
52798;SDS011;38667;42.872;74.622;2024-02-14T12:01:27;50.97;;;17.75;;
52798;SDS011;38667;42.872;74.622;2024-02-14T12:03:54;48.85;;;20.38;;
52798;SDS011;38667;42.872;74.622;2024-02-14T12:06:22;59.33;;;21.63;;
52798;SDS011;38667;42.872;74.622;2024-02-14T12:08:48;49.55;;;19.02;;
52798;SDS011;38667;42.872;74.622;2024-02-14T12:11:15;53.95;;;20.10;;
52798;SDS011;38667;42.872;74.622;2024-02-14T12:13:43;63.05;;;22.65;;
52798;SDS011;38667;42.872;74.622;2024-02-14T12:16:14;57.65;;;19.67;;
52798;SDS011;38667;42.872;74.622;2024-02-14T12:18:40;55.90;;;20.45;;
52798;SDS011;38667;42.872;74.622;2024-02-14T12:21:07;64.20;;;20.88;;
52798;SDS011;38667;42.872;74.622;2024-02-14T12:23:35;61.25;;;20.60;;
52798;SDS011;38667;42.872;74.622;2024-02-14T12:26:01;68.40;;;24.85;;
52798;SDS011;38667;42.872;74.622;2024-02-14T12:28:28;69.93;;;27.98;;
52798;SDS011;38667;42.872;74.622;2024-02-14T12:30:56;84.53;;;34.80;;
52798;SDS011;38667;42.872;74.622;2024-02-14T12:33:23;52.58;;;24.05;;
52798;SDS011;38667;42.872;74.622;2024-02-14T12:35:50;45.03;;;17.90;;
52798;SDS011;38667;42.872;74.622;2024-02-14T12:38:18;48.85;;;22.65;;
52798;SDS011;38667;42.872;74.622;2024-02-14T12:40:48;75.60;;;31.33;;
52798;SDS011;38667;42.872;74.622;2024-02-14T12:43:15;75.50;;;27.42;;
52798;SDS011;38667;42.872;74.622;2024-02-14T12:45:42;142.32;;;28.95;;
52798;SDS011;38667;42.872;74.622;2024-02-14T12:48:09;99.70;;;22.75;;
52798;SDS011;38667;42.872;74.622;2024-02-14T12:50:36;133.93;;;29.83;;
52798;SDS011;38667;42.872;74.622;2024-02-14T12:53:03;112.70;;;29.98;;
52798;SDS011;38667;42.872;74.622;2024-02-14T12:55:29;52.42;;;14.02;;
52798;SDS011;38667;42.872;74.622;2024-02-14T12:57:57;43.00;;;14.20;;
52798;SDS011;38667;42.872;74.622;2024-02-14T13:00:24;52.20;;;15.15;;
52798;SDS011;38667;42.872;74.622;2024-02-14T13:02:51;40.97;;;12.07;;
52798;SDS011;38667;42.872;74.622;2024-02-14T13:05:17;49.33;;;13.90;;
52798;SDS011;38667;42.872;74.622;2024-02-14T13:07:43;49.92;;;12.77;;
52798;SDS011;38667;42.872;74.622;2024-02-14T13:10:10;49.90;;;14.57;;
52798;SDS011;38667;42.872;74.622;2024-02-14T13:12:36;43.90;;;13.32;;
52798;SDS011;38667;42.872;74.622;2024-02-14T13:15:05;46.42;;;16.20;;
52798;SDS011;38667;42.872;74.622;2024-02-14T13:17:32;53.13;;;21.35;;
52798;SDS011;38667;42.872;74.622;2024-02-14T13:19:58;63.13;;;24.98;;
52798;SDS011;38667;42.872;74.622;2024-02-14T13:22:25;76.28;;;28.55;;
52798;SDS011;38667;42.872;74.622;2024-02-14T13:24:51;71.95;;;25.23;;
52798;SDS011;38667;42.872;74.622;2024-02-14T13:27:17;43.85;;;16.38;;
52798;SDS011;38667;42.872;74.622;2024-02-14T13:29:44;37.97;;;12.38;;
52798;SDS011;38667;42.872;74.622;2024-02-14T13:32:12;45.88;;;14.00;;
52798;SDS011;38667;42.872;74.622;2024-02-14T13:34:38;55.03;;;14.70;;
52798;SDS011;38667;42.872;74.622;2024-02-14T13:37:04;63.47;;;15.63;;
52798;SDS011;38667;42.872;74.622;2024-02-14T13:39:31;86.50;;;20.27;;
52798;SDS011;38667;42.872;74.622;2024-02-14T13:41:58;147.57;;;49.33;;
52798;SDS011;38667;42.872;74.622;2024-02-14T13:44:24;128.50;;;46.65;;
52798;SDS011;38667;42.872;74.622;2024-02-14T13:46:50;141.57;;;41.90;;
52798;SDS011;38667;42.872;74.622;2024-02-14T13:49:18;85.95;;;27.60;;
52798;SDS011;38667;42.872;74.622;2024-02-14T13:51:45;87.50;;;29.35;;
52798;SDS011;38667;42.872;74.622;2024-02-14T13:54:11;89.00;;;28.00;;
52798;SDS011;38667;42.872;74.622;2024-02-14T13:56:37;97.47;;;26.83;;
52798;SDS011;38667;42.872;74.622;2024-02-14T13:59:04;67.55;;;22.52;;
52798;SDS011;38667;42.872;74.622;2024-02-14T14:01:30;72.38;;;21.88;;
52798;SDS011;38667;42.872;74.622;2024-02-14T14:03:56;48.95;;;18.55;;
52798;SDS011;38667;42.872;74.622;2024-02-14T14:06:24;58.88;;;19.42;;
52798;SDS011;38667;42.872;74.622;2024-02-14T14:08:51;61.85;;;25.17;;
52798;SDS011;38667;42.872;74.622;2024-02-14T14:11:17;76.47;;;31.15;;
52798;SDS011;38667;42.872;74.622;2024-02-14T14:13:43;91.30;;;27.73;;
52798;SDS011;38667;42.872;74.622;2024-02-14T14:16:10;76.72;;;26.80;;
52798;SDS011;38667;42.872;74.622;2024-02-14T14:18:36;78.13;;;22.88;;
52798;SDS011;38667;42.872;74.622;2024-02-14T14:21:02;66.78;;;20.85;;